createdAt,value
2024-03-13T00:01:52.962Z,8.44
2024-03-13T00:04:21.256Z,8.32
2024-03-13T00:06:48.627Z,8.28
2024-03-13T00:09:18.747Z,8.26
2024-03-13T00:11:45.980Z,8.24
2024-03-13T00:14:13.342Z,8.34
2024-03-13T00:16:40.580Z,8.28
2024-03-13T00:19:10.390Z,8.21
2024-03-13T00:24:08.117Z,8.10
2024-03-13T00:26:35.375Z,7.99
2024-03-13T00:29:05.393Z,8.12
2024-03-13T00:31:32.792Z,8.00
2024-03-13T00:34:01.934Z,8.10
2024-03-13T00:36:29.374Z,8.16
2024-03-13T00:38:59.715Z,8.21
2024-03-13T00:41:27.148Z,8.26
2024-03-13T00:43:54.858Z,8.16
2024-03-13T00:46:30.582Z,8.12
2024-03-13T00:48:58.414Z,8.14
2024-03-13T00:51:26.057Z,8.19
2024-03-13T00:53:53.507Z,8.26
2024-03-13T00:56:22.394Z,8.16
2024-03-13T00:58:50.138Z,8.16
2024-03-13T01:01:23.605Z,8.15
2024-03-13T01:03:51.216Z,8.04
2024-03-13T01:06:18.852Z,8.08
2024-03-13T01:08:46.081Z,8.04
2024-03-13T01:11:13.331Z,8.06
2024-03-13T01:13:40.729Z,8.04
2024-03-13T01:16:12.150Z,8.06
2024-03-13T01:18:39.429Z,8.09
2024-03-13T01:21:06.745Z,8.09
2024-03-13T01:23:34.078Z,8.09
2024-03-13T01:26:05.917Z,8.13
2024-03-13T01:28:33.168Z,8.14
2024-03-13T01:31:00.651Z,8.13
2024-03-13T01:33:29.770Z,8.14
2024-03-13T01:35:56.996Z,8.10
2024-03-13T01:38:24.328Z,8.07
2024-03-13T01:41:10.300Z,7.99
2024-03-13T01:43:56.217Z,8.09
2024-03-13T01:46:42.064Z,8.10
2024-03-13T01:49:36.741Z,8.09
2024-03-13T01:52:26.089Z,7.98
2024-03-13T01:55:05.459Z,8.04
2024-03-13T01:57:47.050Z,8.03
2024-03-13T02:00:34.165Z,7.98
2024-03-13T02:03:01.438Z,7.96
2024-03-13T02:05:28.845Z,7.89
2024-03-13T02:07:56.227Z,7.90
2024-03-13T02:10:23.513Z,7.83
2024-03-13T02:13:04.471Z,7.88
2024-03-13T02:15:32.234Z,7.94
2024-03-13T02:18:04.140Z,7.95
2024-03-13T02:20:34.361Z,7.94
2024-03-13T02:23:05.755Z,7.87
2024-03-13T02:25:33.228Z,7.94
2024-03-13T02:28:01.484Z,7.86
2024-03-13T02:30:28.892Z,7.87
2024-03-13T02:32:56.582Z,7.85
2024-03-13T02:35:23.881Z,7.86
2024-03-13T02:37:51.128Z,7.84
2024-03-13T02:40:18.449Z,7.79
2024-03-13T02:42:46.182Z,7.78
2024-03-13T02:45:15.575Z,7.70
2024-03-13T02:47:43.070Z,7.72
2024-03-13T02:50:12.961Z,7.70
2024-03-13T02:52:40.767Z,7.65
2024-03-13T02:55:08.682Z,7.63
2024-03-13T02:57:36.045Z,7.67
2024-03-13T03:00:07.429Z,7.64
2024-03-13T03:02:36.217Z,7.66
2024-03-13T03:05:06.784Z,7.61
2024-03-13T03:07:34.974Z,7.61
2024-03-13T03:10:02.352Z,7.65
2024-03-13T03:12:29.690Z,7.73
2024-03-13T03:14:56.944Z,7.64
2024-03-13T03:17:24.234Z,7.74
2024-03-13T03:19:52.097Z,7.66
2024-03-13T03:22:20.003Z,7.70
2024-03-13T03:24:48.390Z,7.64
2024-03-13T03:27:15.732Z,7.60
2024-03-13T03:29:43.060Z,7.62
2024-03-13T03:32:10.444Z,7.62
2024-03-13T03:34:37.876Z,7.59
2024-03-13T03:37:05.251Z,7.56
2024-03-13T03:39:39.361Z,7.54
2024-03-13T03:42:07.788Z,7.53
2024-03-13T03:44:35.085Z,7.61
2024-03-13T03:47:02.385Z,7.50
2024-03-13T03:49:29.650Z,7.59
2024-03-13T03:51:57.035Z,7.50
2024-03-13T03:54:24.581Z,7.50
2024-03-13T03:56:52.972Z,7.40
2024-03-13T03:59:20.243Z,7.43
2024-03-13T04:01:47.631Z,7.44
2024-03-13T04:04:15.108Z,7.43
2024-03-13T04:06:42.732Z,7.47
2024-03-13T04:09:16.157Z,7.23
2024-03-13T04:11:44.125Z,7.22
2024-03-13T04:14:15.040Z,7.33
2024-03-13T04:16:44.630Z,7.38
2024-03-13T04:19:15.489Z,7.42
2024-03-13T04:21:44.076Z,7.40
2024-03-13T04:24:11.514Z,7.22
2024-03-13T04:26:42.469Z,6.99
2024-03-13T04:29:12.150Z,6.85
2024-03-13T04:31:41.591Z,6.86
2024-03-13T04:34:11.360Z,7.11
2024-03-13T04:36:42.309Z,7.12
2024-03-13T04:39:09.677Z,7.15
2024-03-13T04:41:40.843Z,7.19
2024-03-13T04:44:11.632Z,6.92
2024-03-13T04:46:44.487Z,6.59
2024-03-13T04:49:12.516Z,6.78
2024-03-13T04:51:40.022Z,6.84
2024-03-13T04:54:10.224Z,6.73
2024-03-13T04:56:38.481Z,6.64
2024-03-13T04:59:05.896Z,6.73
2024-03-13T05:01:33.244Z,6.73
2024-03-13T05:04:00.713Z,6.75
2024-03-13T05:06:27.953Z,6.62
2024-03-13T05:08:56.034Z,6.78
2024-03-13T05:11:23.522Z,6.77
2024-03-13T05:13:50.825Z,6.64
2024-03-13T05:16:20.055Z,6.61
2024-03-13T05:18:49.551Z,6.71
2024-03-13T05:21:19.599Z,6.78
2024-03-13T05:23:47.129Z,6.80
2024-03-13T05:26:14.368Z,6.94
2024-03-13T05:28:41.654Z,7.06
2024-03-13T05:31:11.266Z,6.93
2024-03-13T05:33:41.498Z,7.08
2024-03-13T05:36:12.357Z,7.15
2024-03-13T05:38:40.051Z,6.99
2024-03-13T05:41:07.461Z,7.01
2024-03-13T05:43:34.735Z,7.09
2024-03-13T05:46:02.722Z,7.16
2024-03-13T05:48:32.005Z,7.21
2024-03-13T05:50:59.264Z,7.15
2024-03-13T05:53:26.485Z,7.14
2024-03-13T05:55:53.756Z,6.78
2024-03-13T05:58:21.685Z,6.72
2024-03-13T06:00:49.705Z,6.72
2024-03-13T06:03:17.015Z,6.76
2024-03-13T06:05:44.336Z,6.93
2024-03-13T06:08:13.871Z,6.94
2024-03-13T06:10:41.264Z,7.06
2024-03-13T06:13:08.719Z,7.08
2024-03-13T06:15:36.316Z,7.14
2024-03-13T06:18:03.768Z,7.04
2024-03-13T06:20:32.003Z,7.18
2024-03-13T06:23:00.080Z,7.05
2024-03-13T06:25:29.341Z,7.24
2024-03-13T06:28:16.749Z,7.16
2024-03-13T06:30:44.067Z,7.14
2024-03-13T06:33:12.487Z,6.81
2024-03-13T06:35:40.744Z,7.02
2024-03-13T06:38:08.111Z,7.28
2024-03-13T06:40:35.581Z,7.29
2024-03-13T06:43:03.153Z,7.44
2024-03-13T06:45:38.542Z,7.45
2024-03-13T06:48:07.474Z,7.61
2024-03-13T06:50:36.176Z,7.64
2024-03-13T06:53:04.191Z,7.63
2024-03-13T06:55:31.883Z,7.69
2024-03-13T06:57:59.379Z,7.69
2024-03-13T07:00:29.474Z,7.59
2024-03-13T07:02:58.013Z,7.68
2024-03-13T07:05:25.246Z,7.58
2024-03-13T07:07:59.802Z,7.65
2024-03-13T07:10:27.102Z,7.64
2024-03-13T07:12:56.913Z,7.68
2024-03-13T07:15:24.171Z,7.69
2024-03-13T07:17:51.597Z,7.80
2024-03-13T07:20:18.892Z,7.87
2024-03-13T07:22:46.121Z,7.83
2024-03-13T07:25:13.679Z,7.91
2024-03-13T07:27:41.299Z,7.91
2024-03-13T07:30:09.196Z,7.96
2024-03-13T07:32:36.948Z,8.09
2024-03-13T07:35:05.478Z,8.14
2024-03-13T07:37:33.228Z,8.14
2024-03-13T07:40:01.153Z,7.96
2024-03-13T07:42:28.490Z,8.04
2024-03-13T07:44:56.108Z,7.97
2024-03-13T07:47:23.576Z,8.18
2024-03-13T07:49:51.070Z,8.24
2024-03-13T07:52:18.596Z,8.14
2024-03-13T07:54:46.045Z,8.29
2024-03-13T07:57:13.525Z,8.27
2024-03-13T07:59:42.054Z,8.03
2024-03-13T08:02:09.932Z,8.23
2024-03-13T08:04:37.666Z,8.40
2024-03-13T09:07:42.918Z,9.11
2024-03-13T09:10:13.610Z,9.10
2024-03-13T09:12:41.163Z,9.21
2024-03-13T09:15:09.004Z,9.16
2024-03-13T09:17:36.862Z,9.23
2024-03-13T09:20:04.884Z,9.23
2024-03-13T09:22:32.174Z,9.13
2024-03-13T09:24:59.634Z,9.25
2024-03-13T09:27:26.980Z,9.42
2024-03-13T09:29:54.244Z,9.31
2024-03-13T09:32:22.651Z,9.54
2024-03-13T09:34:51.890Z,9.54
2024-03-13T09:37:20.413Z,9.59
2024-03-13T09:39:47.747Z,9.16
2024-03-13T09:42:18.570Z,9.37
2024-03-13T09:44:47.366Z,9.52
2024-03-13T09:47:15.629Z,9.57
2024-03-13T09:49:46.574Z,9.48
2024-03-13T09:52:14.045Z,9.19
2024-03-13T09:54:42.328Z,9.01
2024-03-13T09:57:14.014Z,9.00
2024-03-13T09:59:42.574Z,9.03
2024-03-13T10:02:17.370Z,9.26
2024-03-13T10:04:46.454Z,9.09
2024-03-13T10:07:23.031Z,9.20
2024-03-13T10:09:50.484Z,9.16
2024-03-13T10:12:21.813Z,9.15
2024-03-13T10:14:54.238Z,9.42
2024-03-13T10:17:28.474Z,9.53
2024-03-13T10:19:56.868Z,9.82
2024-03-13T10:22:27.013Z,9.67
2024-03-13T10:24:56.268Z,13.19
2024-03-13T10:27:24.755Z,14.33
2024-03-13T10:29:54.633Z,15.01
2024-03-13T10:32:23.997Z,13.00
2024-03-13T10:34:51.946Z,11.85
2024-03-13T10:37:20.757Z,11.38
2024-03-13T10:39:48.129Z,11.18
2024-03-13T10:42:15.458Z,10.97
2024-03-13T10:44:43.318Z,10.97
2024-03-13T10:47:10.917Z,10.80
2024-03-13T10:49:38.377Z,10.82
2024-03-13T10:52:11.016Z,10.71
2024-03-13T10:54:38.328Z,10.74
2024-03-13T10:57:06.314Z,10.87
2024-03-13T10:59:34.581Z,10.69
2024-03-13T11:02:04.539Z,10.77
2024-03-13T11:04:34.838Z,10.81
2024-03-13T11:07:02.062Z,10.84
2024-03-13T11:09:29.388Z,10.59
2024-03-13T11:12:00.496Z,10.69
2024-03-13T11:14:28.971Z,10.82
2024-03-13T11:17:04.097Z,10.64
2024-03-13T11:19:34.386Z,10.42
2024-03-13T11:22:04.872Z,10.73
2024-03-13T11:24:33.587Z,10.78
2024-03-13T11:27:08.806Z,10.87
2024-03-13T11:29:44.523Z,10.80
2024-03-13T11:32:14.371Z,10.64
2024-03-13T11:34:44.726Z,10.57
2024-03-13T11:37:13.220Z,10.57
2024-03-13T11:39:41.743Z,10.59
2024-03-13T11:42:15.661Z,10.78
2024-03-13T11:44:45.462Z,10.82
2024-03-13T11:47:13.347Z,10.82
2024-03-13T11:49:42.403Z,10.87
2024-03-13T11:52:16.499Z,10.83
2024-03-13T11:54:47.503Z,10.79
2024-03-13T11:57:16.262Z,10.88
2024-03-13T11:59:51.507Z,10.84
2024-03-13T12:02:34.760Z,10.84
2024-03-13T12:05:06.256Z,10.98
2024-03-13T12:07:37.651Z,10.98
2024-03-13T12:10:05.419Z,10.76
2024-03-13T12:12:33.499Z,10.73
2024-03-13T12:15:01.338Z,10.40
2024-03-13T12:17:28.716Z,10.42
2024-03-13T12:19:57.377Z,10.12
2024-03-13T12:22:25.634Z,10.35
2024-03-13T12:24:55.915Z,10.40
2024-03-13T12:27:26.108Z,10.54
2024-03-13T12:29:55.709Z,10.46
2024-03-13T12:32:25.976Z,10.25
2024-03-13T12:34:53.444Z,10.38
2024-03-13T12:37:20.646Z,10.54
2024-03-13T12:39:48.540Z,10.87
2024-03-13T12:42:15.823Z,11.03
2024-03-13T12:44:44.509Z,11.07
2024-03-13T12:47:13.712Z,11.13
2024-03-13T12:49:42.248Z,10.97
2024-03-13T12:52:14.032Z,11.09
2024-03-13T12:54:41.655Z,11.18
2024-03-13T12:57:12.400Z,10.94
2024-03-13T12:59:54.961Z,10.80
2024-03-13T13:02:23.525Z,10.76
2024-03-13T13:04:50.861Z,10.73
2024-03-13T13:07:20.491Z,10.74
2024-03-13T13:09:51.375Z,10.68
2024-03-13T13:12:21.863Z,10.76
2024-03-13T13:14:49.227Z,10.80
2024-03-13T13:17:16.580Z,10.41
2024-03-13T13:19:43.848Z,10.61
2024-03-13T13:22:13.206Z,10.50
2024-03-13T13:24:40.455Z,10.50
2024-03-13T13:27:09.357Z,10.67
2024-03-13T13:29:38.133Z,10.74
2024-03-13T13:32:07.101Z,10.86
2024-03-13T13:34:34.673Z,11.05
2024-03-13T13:37:01.957Z,11.17
2024-03-13T13:39:29.241Z,11.20
2024-03-13T13:41:56.961Z,11.27
2024-03-13T13:44:24.372Z,11.36
2024-03-13T13:46:51.899Z,11.19
2024-03-13T13:49:19.164Z,11.01
2024-03-13T13:51:46.457Z,10.87
2024-03-13T13:54:13.787Z,10.95
2024-03-13T13:56:41.165Z,10.80
2024-03-13T13:59:09.054Z,10.98
2024-03-13T14:01:37.003Z,10.89
2024-03-13T14:04:07.458Z,10.75
2024-03-13T14:06:36.668Z,11.02
2024-03-13T14:09:04.509Z,10.99
2024-03-13T14:11:32.205Z,11.22
2024-03-13T14:14:01.488Z,11.35
2024-03-13T14:16:29.510Z,11.28
2024-03-13T14:18:57.851Z,11.39
2024-03-13T14:21:25.281Z,11.41
2024-03-13T14:23:52.749Z,11.36
2024-03-13T14:26:21.102Z,11.42
2024-03-13T14:28:48.986Z,11.55
2024-03-13T14:31:17.164Z,11.59
2024-03-13T14:33:44.767Z,11.60
2024-03-13T14:36:13.132Z,11.30
2024-03-13T14:38:43.609Z,11.48
2024-03-13T14:41:13.889Z,11.36
2024-03-13T14:43:43.983Z,11.20
2024-03-13T14:46:11.257Z,11.28
2024-03-13T14:48:38.646Z,11.39
2024-03-13T14:51:06.453Z,11.54
2024-03-13T14:53:33.771Z,11.57
2024-03-13T14:56:01.130Z,11.35
2024-03-13T14:58:37.130Z,11.33
2024-03-13T15:01:05.062Z,11.21
2024-03-13T15:03:34.928Z,11.26
2024-03-13T15:06:02.307Z,11.03
2024-03-13T15:08:29.622Z,11.22
2024-03-13T15:10:56.967Z,11.04
2024-03-13T15:13:24.280Z,11.27
2024-03-13T15:15:54.406Z,11.44
2024-03-13T15:18:24.963Z,11.15
2024-03-13T15:20:53.201Z,11.08
2024-03-13T15:23:20.717Z,10.92
2024-03-13T15:25:49.865Z,10.88
2024-03-13T15:28:18.041Z,10.88
2024-03-13T15:30:46.074Z,10.85
2024-03-13T15:33:17.133Z,11.08
2024-03-13T15:35:45.307Z,11.07
2024-03-13T15:38:12.696Z,11.19
2024-03-13T15:40:40.089Z,11.33
2024-03-13T15:43:09.163Z,10.98
2024-03-13T15:45:36.560Z,11.18
2024-03-13T15:48:05.514Z,11.33
2024-03-13T15:50:36.282Z,11.20
2024-03-13T15:53:05.365Z,11.15
2024-03-13T15:55:32.684Z,11.21
2024-03-13T15:58:00.277Z,11.22
2024-03-13T16:00:28.200Z,11.10
2024-03-13T16:03:00.186Z,11.21
2024-03-13T16:05:28.228Z,11.22
2024-03-13T16:08:16.643Z,11.22
2024-03-13T16:10:45.930Z,11.22
2024-03-13T16:13:13.319Z,11.19
2024-03-13T16:15:41.283Z,11.18
2024-03-13T16:18:11.753Z,11.07
2024-03-13T16:20:39.648Z,10.92
2024-03-13T16:23:08.529Z,10.99
2024-03-13T16:25:36.111Z,11.01
2024-03-13T16:28:03.797Z,11.06
2024-03-13T16:30:31.088Z,11.06
2024-03-13T16:32:58.452Z,11.03
2024-03-13T16:35:25.922Z,10.91
2024-03-13T16:37:53.285Z,10.97
2024-03-13T16:40:20.520Z,11.02
2024-03-13T16:42:48.821Z,11.03
2024-03-13T16:45:19.070Z,11.11
2024-03-13T16:47:46.836Z,11.12
2024-03-13T16:50:18.015Z,11.04
2024-03-13T16:52:45.578Z,11.06
2024-03-13T16:55:13.030Z,11.08
2024-03-13T16:57:41.487Z,11.13
2024-03-13T17:00:16.180Z,10.99
2024-03-13T17:02:45.443Z,11.00
2024-03-13T17:05:15.546Z,10.99
2024-03-13T17:07:43.472Z,10.97
2024-03-13T17:10:11.102Z,11.04
2024-03-13T17:12:39.664Z,11.07
2024-03-13T17:15:07.840Z,10.89
2024-03-13T17:17:35.709Z,10.94
2024-03-13T17:20:07.854Z,10.84
2024-03-13T17:22:35.681Z,10.76
2024-03-13T17:25:05.113Z,10.82
2024-03-13T17:27:33.325Z,10.92
2024-03-13T17:30:01.038Z,10.93
2024-03-13T17:32:28.408Z,10.91
2024-03-13T17:34:58.149Z,10.76
2024-03-13T17:37:28.721Z,10.71
2024-03-13T17:39:57.458Z,10.64
2024-03-13T17:42:24.983Z,10.73
2024-03-13T17:44:52.308Z,10.71
2024-03-13T17:47:19.720Z,10.73
2024-03-13T17:49:49.088Z,10.38
2024-03-13T17:52:16.404Z,10.37
2024-03-13T17:54:43.769Z,10.47
2024-03-13T17:57:11.151Z,10.51
2024-03-13T17:59:42.342Z,10.57
2024-03-13T18:02:12.976Z,10.57
2024-03-13T18:04:41.086Z,10.54
2024-03-13T18:07:12.061Z,10.61
2024-03-13T18:09:41.546Z,10.64
2024-03-13T18:12:10.392Z,10.68
2024-03-13T18:14:38.040Z,10.64
2024-03-13T18:17:05.893Z,10.64
2024-03-13T18:19:33.415Z,10.69
2024-03-13T18:22:00.741Z,10.56
2024-03-13T18:24:28.108Z,10.50
2024-03-13T18:26:55.441Z,10.57
2024-03-13T18:29:22.736Z,10.60
2024-03-13T18:31:51.798Z,10.43
2024-03-13T18:34:19.600Z,10.52
2024-03-13T18:36:49.005Z,10.46
2024-03-13T18:39:18.968Z,10.60
2024-03-13T18:41:46.653Z,10.63
2024-03-13T18:44:13.964Z,10.53
2024-03-13T18:46:41.248Z,10.53
2024-03-13T18:49:11.718Z,10.57
2024-03-13T18:51:39.418Z,10.57
2024-03-13T18:54:06.878Z,10.57
2024-03-13T18:56:36.450Z,10.54
2024-03-13T18:59:05.528Z,10.43
2024-03-13T19:01:33.591Z,10.55
2024-03-13T19:04:00.985Z,10.55
2024-03-13T19:06:28.360Z,10.61
2024-03-13T19:08:55.757Z,10.62
2024-03-13T19:11:23.066Z,10.54
2024-03-13T19:13:50.350Z,10.61
2024-03-13T19:16:18.351Z,10.62
2024-03-13T19:18:46.448Z,10.62
2024-03-13T19:21:13.935Z,10.60
2024-03-13T19:23:42.595Z,10.64
2024-03-13T19:26:09.936Z,10.63
2024-03-13T19:28:38.961Z,10.65
2024-03-13T19:31:10.219Z,10.63
2024-03-13T19:33:39.054Z,10.64
2024-03-13T19:36:07.152Z,10.61
2024-03-13T19:38:34.518Z,10.57
2024-03-13T19:41:01.804Z,10.56
2024-03-13T19:43:29.786Z,10.60
2024-03-13T19:45:59.859Z,10.59
2024-03-13T19:48:27.450Z,10.55
2024-03-13T19:50:54.938Z,10.56
2024-03-13T19:53:22.366Z,10.49
2024-03-13T19:55:49.608Z,10.47
2024-03-13T19:58:17.004Z,10.53
2024-03-13T20:00:44.963Z,10.56
2024-03-13T20:03:13.194Z,10.48
2024-03-13T20:05:40.696Z,10.50
2024-03-13T20:08:08.128Z,10.44
2024-03-13T20:10:35.405Z,10.42
2024-03-13T20:13:04.300Z,10.47
2024-03-13T20:15:31.695Z,10.48
2024-03-13T20:17:58.986Z,10.43
2024-03-13T20:20:28.068Z,10.46
2024-03-13T20:22:56.106Z,10.41
2024-03-13T20:25:23.492Z,10.47
2024-03-13T20:27:51.020Z,10.41
2024-03-13T20:30:18.595Z,10.45
2024-03-13T20:32:46.395Z,10.47
2024-03-13T20:35:13.998Z,10.41
2024-03-13T20:37:41.499Z,10.45
2024-03-13T20:40:13.790Z,10.50
2024-03-13T20:42:44.767Z,10.47
2024-03-13T20:45:12.352Z,10.35
2024-03-13T20:47:39.933Z,10.40
2024-03-13T20:50:10.461Z,10.44
2024-03-13T20:52:38.944Z,10.42
2024-03-13T20:55:10.501Z,10.40
2024-03-13T20:57:39.150Z,10.40
2024-03-13T21:00:14.803Z,10.25
2024-03-13T21:02:44.495Z,10.06
2024-03-13T21:05:12.809Z,10.19
2024-03-13T21:07:40.414Z,10.17
2024-03-13T21:10:10.233Z,10.26
2024-03-13T21:12:40.496Z,10.34
2024-03-13T21:15:11.506Z,10.16
2024-03-13T21:17:38.939Z,10.26
2024-03-13T21:20:11.196Z,10.31
2024-03-13T21:22:41.938Z,10.33
2024-03-13T21:25:09.356Z,10.17
2024-03-13T21:27:40.011Z,10.12
2024-03-13T21:30:11.035Z,10.26
2024-03-13T21:32:38.690Z,10.26
2024-03-13T21:35:07.598Z,10.20
2024-03-13T21:37:35.265Z,10.26
2024-03-13T21:40:07.357Z,10.22
2024-03-13T21:42:34.806Z,10.24
2024-03-13T21:45:02.294Z,10.18
2024-03-13T21:47:29.588Z,10.21
2024-03-13T21:49:57.564Z,10.18
2024-03-13T21:52:27.700Z,10.01
2024-03-13T21:54:57.960Z,10.07
2024-03-13T21:57:25.229Z,10.15
2024-03-13T21:59:52.535Z,10.02
2024-03-13T22:02:20.286Z,9.91
2024-03-13T22:04:50.420Z,9.98
2024-03-13T22:07:18.689Z,9.98
2024-03-13T22:09:45.918Z,9.93
2024-03-13T22:12:14.831Z,10.04
2024-03-13T22:14:45.214Z,10.09
2024-03-13T22:17:12.515Z,10.03
2024-03-13T22:19:43.564Z,10.12
2024-03-13T22:22:12.269Z,9.93
2024-03-13T22:24:39.568Z,9.99
2024-03-13T22:27:07.317Z,10.04
2024-03-13T22:29:34.734Z,10.07
2024-03-13T22:32:02.014Z,10.03
2024-03-13T22:34:29.246Z,10.09
2024-03-13T22:36:56.658Z,10.05
2024-03-13T22:39:23.999Z,9.99
2024-03-13T22:41:51.461Z,9.87
2024-03-13T22:44:18.812Z,9.89
2024-03-13T22:46:46.015Z,10.00
2024-03-13T22:49:13.306Z,10.08
2024-03-13T22:51:40.555Z,10.12
2024-03-13T22:54:11.183Z,10.07
2024-03-13T22:56:38.612Z,9.76
2024-03-13T22:59:06.502Z,9.96
2024-03-13T23:01:33.974Z,10.06
2024-03-13T23:04:01.164Z,10.11
2024-03-13T23:06:28.634Z,10.12
2024-03-13T23:08:58.187Z,10.09
2024-03-13T23:11:25.676Z,10.08
2024-03-13T23:13:55.090Z,10.09
2024-03-13T23:16:22.554Z,9.94
2024-03-13T23:18:50.702Z,9.97
2024-03-13T23:21:21.737Z,10.00
2024-03-13T23:23:52.998Z,9.96
2024-03-13T23:26:20.757Z,10.01
2024-03-13T23:28:48.069Z,10.05
2024-03-13T23:31:16.382Z,10.12
2024-03-13T23:33:45.599Z,10.05
2024-03-13T23:36:13.828Z,10.07
2024-03-13T23:38:41.665Z,10.08
2024-03-13T23:41:17.168Z,10.08
2024-03-13T23:43:44.920Z,10.10
2024-03-13T23:46:16.111Z,10.09
2024-03-13T23:48:44.308Z,10.13
2024-03-13T23:51:15.392Z,10.11
2024-03-13T23:53:42.938Z,10.15
2024-03-13T23:56:11.256Z,10.14
2024-03-13T23:58:38.487Z,10.04
